createdAt,value
2016-10-27T00:00:07.810Z,95.08
2016-10-27T00:01:08.444Z,95.61
2016-10-27T00:02:08.578Z,95.35
2016-10-27T00:03:08.142Z,95.15
2016-10-27T00:04:07.781Z,95.47
2016-10-27T00:05:08.263Z,95.27
2016-10-27T00:06:07.902Z,95.01
2016-10-27T00:07:08.620Z,95.52
2016-10-27T00:08:08.212Z,96.64
2016-10-27T00:09:08.071Z,97.11
2016-10-27T00:10:07.630Z,97.60
2016-10-27T00:11:08.357Z,96.89
2016-10-27T00:12:08.253Z,97.07
2016-10-27T00:13:07.933Z,97.55
2016-10-27T00:14:08.961Z,96.44
2016-10-27T00:15:07.579Z,96.22
2016-10-27T00:16:08.289Z,96.72
2016-10-27T00:17:08.092Z,97.17
2016-10-27T00:18:07.679Z,96.86
2016-10-27T00:19:08.308Z,96.67
2016-10-27T00:20:08.942Z,97.27
2016-10-27T00:21:07.518Z,97.10
2016-10-27T00:22:08.260Z,96.82
2016-10-27T00:23:07.879Z,96.80
2016-10-27T00:24:08.451Z,96.53
2016-10-27T00:25:08.083Z,96.16
2016-10-27T00:26:08.332Z,95.46
2016-10-27T00:27:08.138Z,95.47
2016-10-27T00:28:07.691Z,95.97
2016-10-27T00:29:08.231Z,96.55
2016-10-27T00:30:07.712Z,96.73
2016-10-27T00:31:08.187Z,96.96
2016-10-27T00:32:07.777Z,97.41
2016-10-27T00:33:08.409Z,97.47
2016-10-27T00:34:08.011Z,97.33
2016-10-27T00:35:07.643Z,97.82
2016-10-27T00:36:08.781Z,98.16
2016-10-27T00:37:08.677Z,98.68
2016-10-27T00:38:08.389Z,98.56
2016-10-27T00:39:08.273Z,97.98
2016-10-27T00:40:07.854Z,96.94
2016-10-27T00:41:08.504Z,96.46
2016-10-27T00:42:08.210Z,96.88
2016-10-27T00:43:07.943Z,97.26
2016-10-27T00:44:16.262Z,97.72
2016-10-27T00:45:07.871Z,97.77
2016-10-27T00:46:08.595Z,97.95
2016-10-27T00:47:08.437Z,98.00
2016-10-27T00:48:08.100Z,98.37
2016-10-27T00:49:07.835Z,98.54
2016-10-27T00:50:08.484Z,98.41
2016-10-27T00:51:08.155Z,97.78
2016-10-27T00:52:07.748Z,98.12
2016-10-27T00:53:08.367Z,98.51
2016-10-27T00:54:07.862Z,98.51
2016-10-27T00:55:08.509Z,98.13
2016-10-27T00:56:08.169Z,96.81
2016-10-27T00:57:07.872Z,96.02
2016-10-27T00:58:08.635Z,95.66
2016-10-27T00:59:08.304Z,95.38
2016-10-27T01:00:07.882Z,96.36
2016-10-27T01:01:08.602Z,95.80
2016-10-27T01:02:08.132Z,95.84
2016-10-27T01:03:07.660Z,96.26
2016-10-27T01:04:08.248Z,96.60
2016-10-27T01:05:07.848Z,96.75
2016-10-27T01:06:09.351Z,97.08
2016-10-27T01:07:08.056Z,97.85
2016-10-27T01:08:09.581Z,98.48
2016-10-27T01:09:08.396Z,98.12
2016-10-27T01:10:08.072Z,98.04
2016-10-27T01:11:07.837Z,97.81
2016-10-27T01:12:08.572Z,97.88
2016-10-27T01:13:08.138Z,97.74
2016-10-27T01:14:07.729Z,98.03
2016-10-27T01:15:08.351Z,97.79
2016-10-27T01:16:07.931Z,97.92
2016-10-27T01:17:07.717Z,97.93
2016-10-27T01:18:08.305Z,98.45
2016-10-27T01:19:07.902Z,98.50
2016-10-27T01:20:08.582Z,98.49
2016-10-27T01:21:08.023Z,98.32
2016-10-27T01:22:07.710Z,97.95
2016-10-27T01:23:08.372Z,98.31
2016-10-27T01:24:07.884Z,98.82
2016-10-27T01:25:08.180Z,98.60
2016-10-27T01:26:07.819Z,98.45
2016-10-27T01:27:08.436Z,98.77
2016-10-27T01:28:08.107Z,99.25
2016-10-27T01:29:15.666Z,99.77
2016-10-27T01:30:08.321Z,99.61
2016-10-27T01:31:07.865Z,99.00
2016-10-27T01:32:08.453Z,98.73
2016-10-27T01:33:08.048Z,97.75
2016-10-27T01:34:07.638Z,97.54
2016-10-27T01:35:08.367Z,97.33
2016-10-27T01:36:08.083Z,97.14
2016-10-27T01:37:07.647Z,97.12
2016-10-27T01:38:08.333Z,97.43
2016-10-27T01:39:07.921Z,97.69
2016-10-27T01:40:08.602Z,98.54
2016-10-27T01:41:08.171Z,98.48
2016-10-27T01:42:07.700Z,97.06
2016-10-27T01:43:08.317Z,96.22
2016-10-27T01:44:07.938Z,96.68
2016-10-27T01:45:07.495Z,96.29
2016-10-27T01:46:08.118Z,96.77
2016-10-27T01:47:07.656Z,98.08
2016-10-27T01:48:08.391Z,98.35
2016-10-27T01:49:08.113Z,98.37
2016-10-27T01:50:07.727Z,98.70
2016-10-27T01:51:08.392Z,97.77
2016-10-27T01:52:07.842Z,98.23
2016-10-27T01:53:07.651Z,98.45
2016-10-27T01:54:08.338Z,98.64
2016-10-27T01:55:07.919Z,98.63
2016-10-27T01:56:08.550Z,98.47
2016-10-27T01:57:08.275Z,98.74
2016-10-27T01:58:07.916Z,98.55
2016-10-27T01:59:20.505Z,98.66
2016-10-27T02:00:08.165Z,98.43
2016-10-27T02:01:07.739Z,98.63
2016-10-27T02:02:08.297Z,98.49
2016-10-27T02:03:07.803Z,98.04
2016-10-27T02:04:08.426Z,97.40
2016-10-27T02:05:08.313Z,97.49
2016-10-27T02:06:07.908Z,97.86
2016-10-27T02:07:08.809Z,97.88
2016-10-27T02:08:08.565Z,98.73
2016-10-27T02:09:08.273Z,98.75
2016-10-27T02:10:07.837Z,98.75
2016-10-27T02:11:08.492Z,98.27
2016-10-27T02:12:08.206Z,97.92
2016-10-27T02:13:07.922Z,98.77
2016-10-27T02:14:07.425Z,98.77
2016-10-27T02:15:08.127Z,98.25
2016-10-27T02:16:07.653Z,98.18
2016-10-27T02:17:08.307Z,98.42
2016-10-27T02:18:07.991Z,98.76
2016-10-27T02:19:07.635Z,98.65
2016-10-27T02:20:08.187Z,98.92
2016-10-27T02:21:07.780Z,98.77
2016-10-27T02:22:08.389Z,98.47
2016-10-27T02:23:08.001Z,98.48
2016-10-27T02:24:07.699Z,98.67
2016-10-27T02:25:08.335Z,98.16
2016-10-27T02:26:07.950Z,98.16
2016-10-27T02:27:07.487Z,97.94
2016-10-27T02:28:07.987Z,98.37
2016-10-27T02:29:07.484Z,98.86
2016-10-27T02:30:07.999Z,99.13
2016-10-27T02:31:07.588Z,99.25
2016-10-27T02:32:08.151Z,99.49
2016-10-27T02:33:07.766Z,99.38
2016-10-27T02:34:08.439Z,99.27
2016-10-27T02:35:08.155Z,99.00
2016-10-27T02:36:07.686Z,98.84
2016-10-27T02:37:08.177Z,98.59
2016-10-27T02:38:07.669Z,99.06
2016-10-27T02:39:08.279Z,99.09
2016-10-27T02:40:07.885Z,99.29
2016-10-27T02:41:08.507Z,99.03
2016-10-27T02:42:08.348Z,98.70
2016-10-27T02:43:07.978Z,98.68
2016-10-27T02:44:07.496Z,98.68
2016-10-27T02:45:08.197Z,98.75
2016-10-27T02:46:07.642Z,98.91
2016-10-27T02:47:08.376Z,98.92
2016-10-27T02:48:08.070Z,98.89
2016-10-27T02:49:07.842Z,99.31
2016-10-27T02:50:08.509Z,98.94
2016-10-27T02:51:08.116Z,98.75
2016-10-27T02:52:07.894Z,98.35
2016-10-27T02:53:08.500Z,98.40
2016-10-27T02:54:14.767Z,98.58
2016-10-27T02:55:16.013Z,98.73
2016-10-27T02:56:07.747Z,98.36
2016-10-27T02:57:08.388Z,98.43
2016-10-27T02:58:07.870Z,97.98
2016-10-27T02:59:08.291Z,97.49
2016-10-27T03:00:07.794Z,97.29
2016-10-27T03:01:08.516Z,96.42
2016-10-27T03:02:08.205Z,95.87
2016-10-27T03:03:07.945Z,95.74
2016-10-27T03:04:07.564Z,96.42
2016-10-27T03:05:08.320Z,97.59
2016-10-27T03:06:07.911Z,97.07
2016-10-27T03:07:08.591Z,96.05
2016-10-27T03:08:08.087Z,95.42
2016-10-27T03:09:07.654Z,95.81
2016-10-27T03:10:08.282Z,96.48
2016-10-27T03:11:07.832Z,96.97
2016-10-27T03:12:08.271Z,97.18
2016-10-27T03:13:07.883Z,97.34
2016-10-27T03:14:08.417Z,98.30
2016-10-27T03:15:08.052Z,98.17
2016-10-27T03:16:07.764Z,98.44
2016-10-27T03:17:08.454Z,97.42
2016-10-27T03:18:07.947Z,97.49
2016-10-27T03:19:07.449Z,97.78
2016-10-27T03:20:08.005Z,98.51
2016-10-27T03:21:07.763Z,98.52
2016-10-27T03:22:08.368Z,98.41
2016-10-27T03:23:08.022Z,98.55
2016-10-27T03:24:07.732Z,98.50
2016-10-27T03:25:08.252Z,98.94
2016-10-27T03:26:08.284Z,98.78
2016-10-27T03:27:07.727Z,98.33
2016-10-27T03:28:08.300Z,98.81
2016-10-27T03:29:07.809Z,97.85
2016-10-27T03:30:08.433Z,97.16
2016-10-27T03:31:15.164Z,97.64
2016-10-27T03:32:07.911Z,98.14
2016-10-27T03:33:07.578Z,97.79
2016-10-27T03:34:08.187Z,98.25
2016-10-27T03:35:07.875Z,98.57
2016-10-27T03:36:08.591Z,98.74
2016-10-27T03:37:08.310Z,98.59
2016-10-27T03:38:07.802Z,98.23
2016-10-27T03:39:08.381Z,97.94
2016-10-27T03:40:08.539Z,97.83
2016-10-27T03:41:08.239Z,97.28
2016-10-27T03:42:07.972Z,96.92
2016-10-27T03:43:07.572Z,97.45
2016-10-27T03:44:08.114Z,97.56
2016-10-27T03:45:07.794Z,97.65
2016-10-27T03:46:08.389Z,96.62
2016-10-27T03:47:07.913Z,96.09
2016-10-27T03:48:08.412Z,95.69
2016-10-27T03:49:07.976Z,96.33
2016-10-27T03:50:07.620Z,96.90
2016-10-27T03:51:08.142Z,97.48
2016-10-27T03:52:13.954Z,97.82
2016-10-27T03:53:07.745Z,98.71
2016-10-27T03:54:08.330Z,98.30
2016-10-27T03:55:07.962Z,98.42
2016-10-27T03:56:07.601Z,98.25
2016-10-27T03:57:08.159Z,98.06
2016-10-27T03:58:07.767Z,98.40
2016-10-27T03:59:08.331Z,98.36
2016-10-27T04:00:07.842Z,98.17
2016-10-27T04:01:08.397Z,98.32
2016-10-27T04:02:08.001Z,98.02
2016-10-27T04:03:07.504Z,98.02
2016-10-27T04:04:13.499Z,98.03
2016-10-27T04:05:08.310Z,96.88
2016-10-27T04:06:13.715Z,95.41
2016-10-27T04:07:08.405Z,95.54
2016-10-27T04:08:08.101Z,95.92
2016-10-27T04:09:07.801Z,96.88
2016-10-27T04:10:08.430Z,97.38
2016-10-27T04:11:07.975Z,97.56
2016-10-27T04:12:07.603Z,96.73
2016-10-27T04:13:08.292Z,97.40
2016-10-27T04:14:14.063Z,97.89
2016-10-27T04:15:13.339Z,97.95
2016-10-27T04:16:08.441Z,97.39
2016-10-27T04:17:09.048Z,97.72
2016-10-27T04:18:07.812Z,97.47
2016-10-27T04:19:08.538Z,98.11
2016-10-27T04:20:08.168Z,97.70
2016-10-27T04:21:13.257Z,97.20
2016-10-27T04:22:08.015Z,96.40
2016-10-27T04:23:07.649Z,95.98
2016-10-27T04:24:09.136Z,95.54
2016-10-27T04:25:10.593Z,95.64
2016-10-27T04:26:08.264Z,95.01
2016-10-27T04:27:07.837Z,95.55
2016-10-27T04:28:08.431Z,96.17
2016-10-27T04:29:08.044Z,96.53
2016-10-27T04:30:07.632Z,96.81
2016-10-27T04:31:08.301Z,96.46
2016-10-27T04:32:08.002Z,96.78
2016-10-27T04:33:07.514Z,96.53
2016-10-27T04:34:08.103Z,96.46
2016-10-27T04:35:07.607Z,96.35
2016-10-27T04:36:08.279Z,96.68
2016-10-27T04:37:07.916Z,96.95
2016-10-27T04:38:08.606Z,96.49
2016-10-27T04:39:08.177Z,96.75
2016-10-27T04:40:07.763Z,96.81
2016-10-27T04:41:08.396Z,96.84
2016-10-27T04:42:08.024Z,97.21
2016-10-27T04:43:07.700Z,97.31
2016-10-27T04:44:08.236Z,96.85
2016-10-27T04:45:07.855Z,96.77
2016-10-27T04:46:08.408Z,96.34
2016-10-27T04:47:07.975Z,96.73
2016-10-27T04:48:07.571Z,96.85
2016-10-27T04:49:08.713Z,96.76
2016-10-27T04:50:08.316Z,96.37
2016-10-27T04:51:07.891Z,95.49
2016-10-27T04:52:08.455Z,95.71
2016-10-27T04:53:08.064Z,95.82
2016-10-27T04:54:07.813Z,96.46
2016-10-27T04:55:08.487Z,97.13
2016-10-27T04:56:08.152Z,96.92
2016-10-27T04:57:07.610Z,95.76
2016-10-27T04:58:08.150Z,95.51
2016-10-27T04:59:07.886Z,95.91
2016-10-27T05:00:08.445Z,96.34
2016-10-27T05:01:08.126Z,97.18
2016-10-27T05:02:08.738Z,96.76
2016-10-27T05:03:08.391Z,96.39
2016-10-27T05:04:08.082Z,97.22
2016-10-27T05:05:07.615Z,98.04
2016-10-27T05:06:08.293Z,97.74
2016-10-27T05:07:07.755Z,97.87
2016-10-27T05:08:08.258Z,97.46
2016-10-27T05:09:07.900Z,97.64
2016-10-27T05:10:08.433Z,96.77
2016-10-27T05:11:07.929Z,96.49
2016-10-27T05:12:07.569Z,95.87
2016-10-27T05:13:25.933Z,95.46
2016-10-27T05:14:07.655Z,94.98
2016-10-27T05:15:08.759Z,94.64
2016-10-27T05:16:09.879Z,94.73
2016-10-27T05:17:09.607Z,94.82
2016-10-27T05:18:08.338Z,94.74
2016-10-27T05:19:07.915Z,94.53
2016-10-27T05:20:15.010Z,95.94
2016-10-27T05:21:07.623Z,96.24
2016-10-27T05:22:08.205Z,96.99
2016-10-27T05:23:07.922Z,97.66
2016-10-27T05:24:07.609Z,97.67
2016-10-27T05:25:08.803Z,97.31
2016-10-27T05:26:07.604Z,97.08
2016-10-27T05:27:08.463Z,97.40
2016-10-27T05:28:08.161Z,97.15
2016-10-27T05:29:07.782Z,97.72
2016-10-27T05:30:09.030Z,98.15
2016-10-27T05:31:07.711Z,97.87
2016-10-27T05:32:08.388Z,97.66
2016-10-27T05:33:08.032Z,97.60
2016-10-27T05:34:07.611Z,97.64
2016-10-27T05:35:08.156Z,97.57
2016-10-27T05:36:07.781Z,97.84
2016-10-27T05:37:08.351Z,97.46
2016-10-27T05:38:07.830Z,96.66
2016-10-27T05:39:08.392Z,96.38
2016-10-27T05:40:08.013Z,97.10
2016-10-27T05:41:07.527Z,98.12
2016-10-27T05:42:08.187Z,97.84
2016-10-27T05:43:07.670Z,98.14
2016-10-27T05:44:13.726Z,97.81
2016-10-27T05:45:10.127Z,96.93
2016-10-27T05:46:07.772Z,96.28
2016-10-27T05:47:08.409Z,96.45
2016-10-27T05:48:08.051Z,96.40
2016-10-27T05:49:07.751Z,96.04
2016-10-27T05:50:08.394Z,96.40
2016-10-27T05:51:08.290Z,96.45
2016-10-27T05:52:08.015Z,97.12
2016-10-27T05:53:07.621Z,97.75
2016-10-27T05:54:08.193Z,97.34
2016-10-27T05:55:07.840Z,97.39
2016-10-27T05:56:08.542Z,97.32
2016-10-27T05:57:08.156Z,97.46
2016-10-27T05:58:07.738Z,97.75
2016-10-27T05:59:08.402Z,97.65
2016-10-27T06:00:08.000Z,97.27
2016-10-27T06:01:07.587Z,96.64
2016-10-27T06:02:08.210Z,97.05
2016-10-27T06:03:07.934Z,97.26
2016-10-27T06:04:07.400Z,97.66
2016-10-27T06:05:08.207Z,97.41
2016-10-27T06:06:07.851Z,97.23
2016-10-27T06:07:08.581Z,98.15
2016-10-27T06:08:08.344Z,98.05
2016-10-27T06:09:07.823Z,97.91
2016-10-27T06:10:08.556Z,97.47
2016-10-27T06:11:08.252Z,97.69
2016-10-27T06:12:07.924Z,96.97
2016-10-27T06:13:08.560Z,96.68
2016-10-27T06:14:08.219Z,96.56
2016-10-27T06:15:07.833Z,96.63
2016-10-27T06:16:08.463Z,97.62
2016-10-27T06:17:08.111Z,98.28
2016-10-27T06:18:07.605Z,97.45
2016-10-27T06:19:08.403Z,96.78
2016-10-27T06:20:08.137Z,96.79
2016-10-27T06:21:07.717Z,97.05
2016-10-27T06:22:08.367Z,96.64
2016-10-27T06:23:08.887Z,96.81
2016-10-27T06:24:08.605Z,96.74
2016-10-27T06:25:20.847Z,96.68
2016-10-27T06:26:08.476Z,97.04
2016-10-27T06:27:19.637Z,96.85
2016-10-27T06:28:08.241Z,96.83
2016-10-27T06:29:07.928Z,97.67
2016-10-27T06:30:07.710Z,97.38
2016-10-27T06:31:15.939Z,97.28
2016-10-27T06:32:07.458Z,97.14
2016-10-27T06:33:07.803Z,97.05
2016-10-27T06:34:22.385Z,97.05
2016-10-27T06:35:08.505Z,96.41
2016-10-27T06:36:08.217Z,97.06
2016-10-27T06:37:07.864Z,97.02
2016-10-27T06:38:08.685Z,97.36
2016-10-27T06:39:08.218Z,96.83
2016-10-27T06:40:07.950Z,96.46
2016-10-27T06:41:07.573Z,95.98
2016-10-27T06:42:09.711Z,96.29
2016-10-27T06:43:08.506Z,96.38
2016-10-27T06:44:08.169Z,96.75
2016-10-27T06:45:07.752Z,96.30
2016-10-27T06:46:08.583Z,96.46
2016-10-27T06:47:08.217Z,96.33
2016-10-27T06:48:08.126Z,96.13
2016-10-27T06:49:07.733Z,95.82
2016-10-27T06:50:09.090Z,96.08
2016-10-27T06:51:07.668Z,96.90
2016-10-27T06:52:08.281Z,96.51
2016-10-27T06:53:07.780Z,96.96
2016-10-27T06:54:08.637Z,96.80
2016-10-27T06:55:09.200Z,97.29
2016-10-27T06:56:07.848Z,97.66
2016-10-27T06:57:36.456Z,97.22
2016-10-27T06:58:08.117Z,97.12
2016-10-27T06:59:07.795Z,97.26
2016-10-27T07:00:08.403Z,96.91
2016-10-27T07:01:08.084Z,96.78
2016-10-27T07:02:07.757Z,97.35
2016-10-27T07:03:08.405Z,97.53
2016-10-27T07:04:08.454Z,96.88
2016-10-27T07:05:08.587Z,96.36
2016-10-27T07:06:08.794Z,96.28
2016-10-27T07:07:07.429Z,96.22
2016-10-27T07:08:08.096Z,96.17
2016-10-27T07:09:07.701Z,96.06
2016-10-27T07:10:16.908Z,95.82
2016-10-27T07:11:08.484Z,96.80
2016-10-27T07:12:08.075Z,97.25
2016-10-27T07:13:07.604Z,96.83
2016-10-27T07:14:08.223Z,96.61
2016-10-27T07:15:07.721Z,96.94
2016-10-27T07:16:08.402Z,96.99
2016-10-27T07:17:08.112Z,96.48
2016-10-27T07:18:08.273Z,95.61
2016-10-27T07:19:07.925Z,95.97
2016-10-27T07:20:08.584Z,96.13
2016-10-27T07:21:08.116Z,96.27
2016-10-27T07:22:07.737Z,96.54
2016-10-27T07:23:08.393Z,96.56
2016-10-27T07:24:07.929Z,96.82
2016-10-27T07:25:08.556Z,96.16
2016-10-27T07:26:08.035Z,96.16
2016-10-27T07:27:07.562Z,97.38
2016-10-27T07:28:08.120Z,96.49
2016-10-27T07:29:07.832Z,96.87
2016-10-27T07:30:08.338Z,96.09
2016-10-27T07:31:07.894Z,95.93
2016-10-27T07:32:08.475Z,96.03
2016-10-27T07:33:08.041Z,94.97
2016-10-27T07:34:07.767Z,95.10
2016-10-27T07:35:08.356Z,95.45
2016-10-27T07:36:08.051Z,94.83
2016-10-27T07:37:07.548Z,94.91
2016-10-27T07:38:08.415Z,95.28
2016-10-27T07:39:08.027Z,94.98
2016-10-27T07:40:07.890Z,94.76
2016-10-27T07:41:08.520Z,94.48
2016-10-27T07:42:08.308Z,94.76
2016-10-27T07:43:08.225Z,95.34
2016-10-27T07:44:07.910Z,95.73
2016-10-27T07:45:08.667Z,95.01
2016-10-27T07:46:08.398Z,95.06
2016-10-27T07:47:08.080Z,95.04
2016-10-27T07:48:07.988Z,94.92
2016-10-27T07:49:07.633Z,94.87
2016-10-27T07:50:10.314Z,95.58
2016-10-27T07:51:07.897Z,94.69
2016-10-27T07:52:08.540Z,94.50
2016-10-27T07:53:07.997Z,95.07
2016-10-27T07:54:07.989Z,95.13
2016-10-27T07:55:07.627Z,94.98
2016-10-27T07:56:15.966Z,94.60
2016-10-27T07:57:07.630Z,94.49
2016-10-27T07:58:08.893Z,94.39
2016-10-27T07:59:08.428Z,93.75
2016-10-27T08:00:07.974Z,93.78
2016-10-27T08:01:07.597Z,93.42
2016-10-27T08:02:08.124Z,93.55
2016-10-27T08:03:07.633Z,93.21
2016-10-27T08:04:08.195Z,93.73
2016-10-27T08:05:08.191Z,94.44
2016-10-27T08:06:07.975Z,94.58
2016-10-27T08:07:14.772Z,94.37
2016-10-27T08:08:08.470Z,94.26
2016-10-27T08:09:08.245Z,94.07
2016-10-27T08:10:07.870Z,93.62
2016-10-27T08:11:09.086Z,93.59
2016-10-27T08:12:07.733Z,93.84
2016-10-27T08:13:08.384Z,93.84
2016-10-27T08:14:07.899Z,94.04
2016-10-27T08:15:08.395Z,92.94
2016-10-27T08:16:07.686Z,92.77
2016-10-27T08:17:08.347Z,93.29
2016-10-27T08:18:07.985Z,93.48
2016-10-27T08:19:07.546Z,93.79
2016-10-27T08:20:08.167Z,93.61
2016-10-27T08:21:07.628Z,94.39
2016-10-27T08:22:08.168Z,95.01
2016-10-27T08:23:07.764Z,95.57
2016-10-27T08:24:09.013Z,95.24
2016-10-27T08:25:07.646Z,95.50
2016-10-27T08:26:08.182Z,94.79
2016-10-27T08:27:08.057Z,95.13
2016-10-27T08:28:07.955Z,95.16
2016-10-27T08:29:07.839Z,94.83
2016-10-27T08:30:08.499Z,94.26
2016-10-27T08:31:08.650Z,93.78
2016-10-27T08:32:08.334Z,93.31
2016-10-27T08:33:08.010Z,93.38
2016-10-27T08:34:07.462Z,93.17
2016-10-27T08:35:07.990Z,93.55
2016-10-27T08:36:07.608Z,93.33
2016-10-27T08:37:08.066Z,93.30
2016-10-27T08:38:08.024Z,93.64
2016-10-27T08:39:07.581Z,93.48
2016-10-27T08:40:08.153Z,93.68
2016-10-27T08:41:08.614Z,93.79
2016-10-27T08:42:08.375Z,93.16
2016-10-27T08:43:07.924Z,93.49
2016-10-27T08:44:08.515Z,93.53
2016-10-27T08:45:08.040Z,94.37
2016-10-27T08:46:07.537Z,93.92
2016-10-27T08:47:08.216Z,93.10
2016-10-27T08:48:07.753Z,92.76
2016-10-27T08:49:07.950Z,92.04
2016-10-27T08:50:07.566Z,91.21
2016-10-27T08:51:08.056Z,91.08
2016-10-27T08:52:07.634Z,92.41
2016-10-27T08:53:08.420Z,93.03
2016-10-27T08:54:08.194Z,93.00
2016-10-27T08:55:07.798Z,92.30
2016-10-27T08:56:14.094Z,92.89
2016-10-27T08:57:07.824Z,92.42
2016-10-27T08:58:08.508Z,92.19
2016-10-27T08:59:08.072Z,91.82
2016-10-27T09:00:08.306Z,91.49
2016-10-27T09:01:07.879Z,92.68
2016-10-27T09:02:08.687Z,92.43
2016-10-27T09:03:08.294Z,91.98
2016-10-27T09:04:07.987Z,91.85
2016-10-27T09:05:07.563Z,91.54
2016-10-27T09:06:08.228Z,91.99
2016-10-27T09:07:07.908Z,91.24
2016-10-27T09:08:08.775Z,91.62
2016-10-27T09:09:08.543Z,91.38
2016-10-27T09:10:08.095Z,91.41
2016-10-27T09:11:07.858Z,90.27
2016-10-27T09:12:08.545Z,89.59
2016-10-27T09:13:08.225Z,89.38
2016-10-27T09:14:07.932Z,89.24
2016-10-27T09:15:07.707Z,88.40
2016-10-27T09:16:08.378Z,88.72
2016-10-27T09:17:08.101Z,89.34
2016-10-27T09:18:07.747Z,87.57
2016-10-27T09:19:08.628Z,87.29
2016-10-27T09:20:08.355Z,86.70
2016-10-27T09:21:07.919Z,86.17
2016-10-27T09:22:08.725Z,86.13
2016-10-27T09:23:08.344Z,86.52
2016-10-27T09:24:07.967Z,86.69
2016-10-27T09:25:07.696Z,85.37
2016-10-27T09:26:08.360Z,84.18
2016-10-27T09:27:07.954Z,84.28
2016-10-27T09:28:07.629Z,84.54
2016-10-27T09:29:08.157Z,85.28
2016-10-27T09:30:07.957Z,85.66
2016-10-27T09:31:07.587Z,84.97
2016-10-27T09:32:08.428Z,85.16
2016-10-27T09:33:08.028Z,85.19
2016-10-27T09:34:07.561Z,86.01
2016-10-27T09:35:08.220Z,86.41
2016-10-27T09:36:07.830Z,86.67
2016-10-27T09:37:08.581Z,86.17
2016-10-27T09:38:08.320Z,86.96
2016-10-27T09:39:08.033Z,86.50
2016-10-27T09:40:07.719Z,86.78
2016-10-27T09:41:08.557Z,87.09
2016-10-27T09:42:08.173Z,86.20
2016-10-27T09:43:07.821Z,86.47
2016-10-27T09:44:08.605Z,87.14
2016-10-27T09:45:08.496Z,87.33
2016-10-27T09:46:08.112Z,86.26
2016-10-27T09:47:08.016Z,86.27
2016-10-27T09:48:08.556Z,85.79
2016-10-27T09:49:08.260Z,85.98
2016-10-27T09:50:07.998Z,85.90
2016-10-27T09:51:13.188Z,85.39
2016-10-27T09:52:08.038Z,84.67
2016-10-27T09:53:07.569Z,85.21
2016-10-27T09:54:08.286Z,85.76
2016-10-27T09:55:07.821Z,85.39
2016-10-27T09:56:08.429Z,86.20
2016-10-27T09:57:08.182Z,86.70
2016-10-27T09:58:07.778Z,86.93
2016-10-27T09:59:08.415Z,86.53
2016-10-27T10:00:08.068Z,85.50
2016-10-27T10:01:07.792Z,85.79
2016-10-27T10:02:08.471Z,86.19
2016-10-27T10:03:08.312Z,85.78
2016-10-27T10:04:08.068Z,85.38
2016-10-27T10:05:07.741Z,84.76
2016-10-27T10:06:08.416Z,85.15
2016-10-27T10:07:08.104Z,84.63
2016-10-27T10:08:08.597Z,84.86
2016-10-27T10:09:08.207Z,85.59
2016-10-27T10:10:07.860Z,85.47
2016-10-27T10:11:08.484Z,85.96
2016-10-27T10:12:08.178Z,86.15
2016-10-27T10:13:07.768Z,85.36
2016-10-27T10:14:08.232Z,85.33
2016-10-27T10:15:08.507Z,86.40
2016-10-27T10:16:07.986Z,86.42
2016-10-27T10:17:07.653Z,85.62
2016-10-27T10:18:08.238Z,85.50
2016-10-27T10:19:07.787Z,85.77
2016-10-27T10:20:08.434Z,84.78
2016-10-27T10:21:07.986Z,85.20
2016-10-27T10:22:07.504Z,85.13
2016-10-27T10:23:08.125Z,84.57
2016-10-27T10:24:07.826Z,83.36
2016-10-27T10:25:08.477Z,84.04
2016-10-27T10:26:07.965Z,84.10
2016-10-27T10:27:07.505Z,83.11
2016-10-27T10:28:08.079Z,83.68
2016-10-27T10:29:07.580Z,83.35
2016-10-27T10:30:08.246Z,83.78
2016-10-27T10:31:07.817Z,84.43
2016-10-27T10:32:08.545Z,84.11
2016-10-27T10:33:08.110Z,83.97
2016-10-27T10:34:07.722Z,83.91
2016-10-27T10:35:08.413Z,83.48
2016-10-27T10:36:08.065Z,83.25
2016-10-27T10:37:07.603Z,83.37
2016-10-27T10:38:08.581Z,83.81
2016-10-27T10:39:08.203Z,83.27
2016-10-27T10:40:07.774Z,82.66
2016-10-27T10:41:08.306Z,83.01
2016-10-27T10:42:07.745Z,82.69
2016-10-27T10:43:08.442Z,82.27
2016-10-27T10:44:08.028Z,82.13
2016-10-27T10:45:07.543Z,82.27
2016-10-27T10:46:07.603Z,82.43
2016-10-27T10:47:08.312Z,81.97
2016-10-27T10:48:20.209Z,82.45
2016-10-27T10:49:07.791Z,82.61
2016-10-27T10:50:08.475Z,82.28
2016-10-27T10:51:08.151Z,82.23
2016-10-27T10:52:07.798Z,81.09
2016-10-27T10:53:08.424Z,81.74
2016-10-27T10:54:08.062Z,83.31
2016-10-27T10:55:13.255Z,83.36
2016-10-27T10:56:08.068Z,83.54
2016-10-27T10:57:07.733Z,83.19
2016-10-27T10:58:08.246Z,82.82
2016-10-27T10:59:07.798Z,82.54
2016-10-27T11:00:08.466Z,82.49
2016-10-27T11:01:08.225Z,82.32
2016-10-27T11:02:07.830Z,82.77
2016-10-27T11:03:08.423Z,81.78
2016-10-27T11:04:07.972Z,80.72
2016-10-27T11:05:07.615Z,81.51
2016-10-27T11:06:08.125Z,80.88
2016-10-27T11:07:07.788Z,80.34
2016-10-27T11:08:08.518Z,79.61
2016-10-27T11:09:08.155Z,80.38
2016-10-27T11:10:07.853Z,79.64
2016-10-27T11:11:08.542Z,81.10
2016-10-27T11:12:08.264Z,81.51
2016-10-27T11:13:07.945Z,80.91
2016-10-27T11:14:07.622Z,80.93
2016-10-27T11:15:08.106Z,80.95
2016-10-27T11:16:07.679Z,81.54
2016-10-27T11:17:08.545Z,81.19
2016-10-27T11:18:08.145Z,80.36
2016-10-27T11:19:07.634Z,79.92
2016-10-27T11:20:08.285Z,79.57
2016-10-27T11:21:07.886Z,79.46
2016-10-27T11:22:08.434Z,79.13
2016-10-27T11:23:07.916Z,78.81
2016-10-27T11:24:08.671Z,78.98
2016-10-27T11:25:08.633Z,78.93
2016-10-27T11:26:08.310Z,79.47
2016-10-27T11:27:18.459Z,78.39
2016-10-27T11:28:08.494Z,78.14
2016-10-27T11:29:08.124Z,79.40
2016-10-27T11:30:07.711Z,79.91
2016-10-27T11:31:08.571Z,79.53
2016-10-27T11:32:08.207Z,78.88
2016-10-27T11:33:07.955Z,78.95
2016-10-27T11:34:07.638Z,79.48
2016-10-27T11:35:08.138Z,79.49
2016-10-27T11:36:07.708Z,78.77
2016-10-27T11:37:08.389Z,77.47
2016-10-27T11:38:07.905Z,76.89
2016-10-27T11:39:08.498Z,77.69
2016-10-27T11:40:08.069Z,78.30
2016-10-27T11:41:07.731Z,77.87
2016-10-27T11:42:08.373Z,77.63
2016-10-27T11:43:08.133Z,78.12
2016-10-27T11:44:08.226Z,77.82
2016-10-27T11:45:08.059Z,77.99
2016-10-27T11:46:07.836Z,78.13
2016-10-27T11:47:08.316Z,76.82
2016-10-27T11:48:08.506Z,77.29
2016-10-27T11:49:08.328Z,76.97
2016-10-27T11:50:07.935Z,77.09
2016-10-27T11:51:07.598Z,76.90
2016-10-27T11:52:08.256Z,77.00
2016-10-27T11:53:08.008Z,77.53
2016-10-27T11:54:07.570Z,77.53
2016-10-27T11:55:08.122Z,76.67
2016-10-27T11:56:07.713Z,76.00
2016-10-27T11:57:08.342Z,76.02
2016-10-27T11:58:16.339Z,75.10
2016-10-27T11:59:07.978Z,75.21
2016-10-27T12:00:07.523Z,75.44
2016-10-27T12:01:08.048Z,75.80
2016-10-27T12:02:07.781Z,76.16
2016-10-27T12:03:15.002Z,76.73
2016-10-27T12:04:08.185Z,76.83
2016-10-27T12:05:07.964Z,77.34
2016-10-27T12:06:07.517Z,77.35
2016-10-27T12:07:07.988Z,77.45
2016-10-27T12:08:07.519Z,77.35
2016-10-27T12:09:07.996Z,77.29
2016-10-27T12:10:07.686Z,77.36
2016-10-27T12:11:08.288Z,77.73
2016-10-27T12:12:07.873Z,77.60
2016-10-27T12:13:08.566Z,76.66
2016-10-27T12:14:08.207Z,75.08
2016-10-27T12:15:07.964Z,74.74
2016-10-27T12:16:07.589Z,75.38
2016-10-27T12:17:08.456Z,75.66
2016-10-27T12:18:08.099Z,74.84
2016-10-27T12:19:08.279Z,75.17
2016-10-27T12:20:07.791Z,75.07
2016-10-27T12:21:08.280Z,75.23
2016-10-27T12:22:07.874Z,75.70
2016-10-27T12:23:08.517Z,74.70
2016-10-27T12:24:09.182Z,75.13
2016-10-27T12:25:09.290Z,75.23
2016-10-27T12:26:07.889Z,76.28
2016-10-27T12:27:08.431Z,76.65
2016-10-27T12:28:08.222Z,76.13
2016-10-27T12:29:07.894Z,75.34
2016-10-27T12:30:08.643Z,74.60
2016-10-27T12:31:08.325Z,75.41
2016-10-27T12:32:08.102Z,74.87
2016-10-27T12:33:07.782Z,74.11
2016-10-27T12:34:08.410Z,72.95
2016-10-27T12:35:08.052Z,73.07
2016-10-27T12:36:07.717Z,73.51
2016-10-27T12:37:15.350Z,74.58
2016-10-27T12:38:07.857Z,72.48
2016-10-27T12:39:08.409Z,72.08
2016-10-27T12:40:07.908Z,72.74
2016-10-27T12:41:08.593Z,73.13
2016-10-27T12:42:08.317Z,72.87
2016-10-27T12:43:08.103Z,72.78
2016-10-27T12:44:07.765Z,73.37
2016-10-27T12:45:08.549Z,71.22
2016-10-27T12:46:08.156Z,71.40
2016-10-27T12:47:14.258Z,71.30
2016-10-27T12:48:07.996Z,71.35
2016-10-27T12:49:07.612Z,72.50
2016-10-27T12:50:08.409Z,72.47
2016-10-27T12:51:07.978Z,70.51
2016-10-27T12:52:07.505Z,70.59